sensor_id;sensor_type;location;lat;lon;timestamp;pressure;altitude;pressure_sealevel;temperature;humidity
7407;BME280;3745;56.964;24.128;2023-06-26T00:00:17;101384.69;;;16.50;100.00
7407;BME280;3745;56.964;24.128;2023-06-26T00:02:42;101399.19;;;16.55;100.00
7407;BME280;3745;56.964;24.128;2023-06-26T00:05:08;101400.91;;;16.44;100.00
7407;BME280;3745;56.964;24.128;2023-06-26T00:07:34;101373.66;;;16.07;100.00
7407;BME280;3745;56.964;24.128;2023-06-26T00:10:01;101417.94;;;16.15;100.00
7407;BME280;3745;56.964;24.128;2023-06-26T00:12:28;101419.63;;;16.13;100.00
7407;BME280;3745;56.964;24.128;2023-06-26T00:14:54;101369.41;;;15.98;100.00
7407;BME280;3745;56.964;24.128;2023-06-26T00:17:20;101388.97;;;16.22;100.00
7407;BME280;3745;56.964;24.128;2023-06-26T00:19:46;101398.34;;;16.41;100.00
7407;BME280;3745;56.964;24.128;2023-06-26T00:22:12;101405.13;;;16.53;100.00
7407;BME280;3745;56.964;24.128;2023-06-26T00:24:38;101371.97;;;16.36;100.00
7407;BME280;3745;56.964;24.128;2023-06-26T00:27:03;101408.59;;;16.61;100.00
7407;BME280;3745;56.964;24.128;2023-06-26T00:29:29;101368.50;;;16.49;100.00
7407;BME280;3745;56.964;24.128;2023-06-26T00:31:55;101354.91;;;16.44;100.00
7407;BME280;3745;56.964;24.128;2023-06-26T00:34:20;101407.72;;;16.69;100.00
7407;BME280;3745;56.964;24.128;2023-06-26T00:36:46;101374.50;;;16.42;100.00
7407;BME280;3745;56.964;24.128;2023-06-26T00:39:11;101170.34;;;15.23;100.00
7407;BME280;3745;56.964;24.128;2023-06-26T00:41:37;101269.84;;;15.88;100.00
7407;BME280;3745;56.964;24.128;2023-06-26T00:44:06;101412.84;;;16.66;100.00
7407;BME280;3745;56.964;24.128;2023-06-26T00:46:32;101395.78;;;16.65;100.00
7407;BME280;3745;56.964;24.128;2023-06-26T00:49:03;101384.69;;;16.68;100.00
7407;BME280;3745;56.964;24.128;2023-06-26T00:51:30;101387.25;;;16.75;100.00
7407;BME280;3745;56.964;24.128;2023-06-26T00:53:56;101366.84;;;16.60;100.00
7407;BME280;3745;56.964;24.128;2023-06-26T00:56:23;101338.72;;;16.45;100.00
7407;BME280;3745;56.964;24.128;2023-06-26T00:58:49;101357.44;;;16.43;100.00
7407;BME280;3745;56.964;24.128;2023-06-26T01:01:15;101218.81;;;15.69;100.00
7407;BME280;3745;56.964;24.128;2023-06-26T01:03:44;101361.72;;;16.48;100.00
7407;BME280;3745;56.964;24.128;2023-06-26T01:06:13;101371.94;;;16.63;100.00
7407;BME280;3745;56.964;24.128;2023-06-26T01:08:41;101365.97;;;16.66;100.00
7407;BME280;3745;56.964;24.128;2023-06-26T01:11:07;101360.00;;;16.62;100.00
7407;BME280;3745;56.964;24.128;2023-06-26T01:13:33;101359.16;;;16.56;100.00
7407;BME280;3745;56.964;24.128;2023-06-26T01:16:00;101332.75;;;16.40;100.00
7407;BME280;3745;56.964;24.128;2023-06-26T01:18:26;101360.00;;;16.53;100.00
7407;BME280;3745;56.964;24.128;2023-06-26T01:20:53;101357.47;;;16.62;100.00
7407;BME280;3745;56.964;24.128;2023-06-26T01:23:31;101350.63;;;16.64;100.00
7407;BME280;3745;56.964;24.128;2023-06-26T01:28:34;101348.09;;;16.55;100.00
7407;BME280;3745;56.964;24.128;2023-06-26T01:31:02;101325.97;;;16.36;100.00
7407;BME280;3745;56.964;24.128;2023-06-26T01:33:30;101348.94;;;16.44;100.00
7407;BME280;3745;56.964;24.128;2023-06-26T01:35:55;101334.50;;;16.23;100.00
7407;BME280;3745;56.964;24.128;2023-06-26T01:38:21;101346.41;;;16.33;100.00
7407;BME280;3745;56.964;24.128;2023-06-26T01:40:51;101354.94;;;16.26;100.00
7407;BME280;3745;56.964;24.128;2023-06-26T01:46:18;101291.97;;;15.89;100.00
7407;BME280;3745;56.964;24.128;2023-06-26T01:51:30;101351.53;;;16.22;100.00
7407;BME280;3745;56.964;24.128;2023-06-26T01:53:58;101360.91;;;16.23;100.00
7407;BME280;3745;56.964;24.128;2023-06-26T01:56:26;101354.94;;;16.29;100.00
7407;BME280;3745;56.964;24.128;2023-06-26T01:58:54;101349.00;;;16.21;100.00
7407;BME280;3745;56.964;24.128;2023-06-26T02:01:20;101346.44;;;16.21;100.00
7407;BME280;3745;56.964;24.128;2023-06-26T02:03:47;101355.78;;;16.23;100.00
7407;BME280;3745;56.964;24.128;2023-06-26T02:06:13;101326.00;;;16.00;100.00
7407;BME280;3745;56.964;24.128;2023-06-26T02:08:39;101358.34;;;16.19;100.00
7407;BME280;3745;56.964;24.128;2023-06-26T02:11:05;101365.16;;;16.17;100.00
7407;BME280;3745;56.964;24.128;2023-06-26T02:13:30;101311.56;;;15.93;100.00
7407;BME280;3745;56.964;24.128;2023-06-26T02:15:56;101352.38;;;16.26;100.00
7407;BME280;3745;56.964;24.128;2023-06-26T02:18:22;101343.88;;;16.22;100.00
7407;BME280;3745;56.964;24.128;2023-06-26T02:20:49;101349.81;;;16.35;100.00
7407;BME280;3745;56.964;24.128;2023-06-26T02:23:14;101288.56;;;16.05;100.00
7407;BME280;3745;56.964;24.128;2023-06-26T02:25:40;101310.69;;;16.15;100.00
7407;BME280;3745;56.964;24.128;2023-06-26T02:28:05;101356.63;;;16.39;100.00
7407;BME280;3745;56.964;24.128;2023-06-26T02:30:31;101352.38;;;16.38;100.00
7407;BME280;3745;56.964;24.128;2023-06-26T02:32:56;101346.41;;;16.39;100.00
7407;BME280;3745;56.964;24.128;2023-06-26T02:35:22;101347.25;;;16.44;100.00
7407;BME280;3745;56.964;24.128;2023-06-26T02:37:48;101303.84;;;16.23;100.00
7407;BME280;3745;56.964;24.128;2023-06-26T02:40:13;101343.81;;;16.53;100.00
7407;BME280;3745;56.964;24.128;2023-06-26T02:42:39;101348.94;;;16.56;100.00
7407;BME280;3745;56.964;24.128;2023-06-26T02:45:05;101346.41;;;16.54;100.00
7407;BME280;3745;56.964;24.128;2023-06-26T02:47:30;101348.09;;;16.55;100.00
7407;BME280;3745;56.964;24.128;2023-06-26T02:49:56;101353.19;;;16.55;100.00
7407;BME280;3745;56.964;24.128;2023-06-26T02:52:21;101303.81;;;16.35;100.00
7407;BME280;3745;56.964;24.128;2023-06-26T02:54:47;101341.28;;;16.63;100.00
7407;BME280;3745;56.964;24.128;2023-06-26T02:57:12;101319.16;;;16.41;100.00
7407;BME280;3745;56.964;24.128;2023-06-26T02:59:40;101344.69;;;16.62;100.00
7407;BME280;3745;56.964;24.128;2023-06-26T03:02:05;101348.03;;;16.73;100.00
7407;BME280;3745;56.964;24.128;2023-06-26T03:04:31;101344.63;;;16.77;100.00
7407;BME280;3745;56.964;24.128;2023-06-26T03:06:57;101271.44;;;16.37;100.00
7407;BME280;3745;56.964;24.128;2023-06-26T03:09:22;101343.78;;;16.77;100.00
7407;BME280;3745;56.964;24.128;2023-06-26T03:11:48;101331.84;;;16.77;100.00
7407;BME280;3745;56.964;24.128;2023-06-26T03:14:13;101310.59;;;16.66;100.00
7407;BME280;3745;56.964;24.128;2023-06-26T03:16:40;101338.63;;;16.83;100.00
7407;BME280;3745;56.964;24.128;2023-06-26T03:19:05;101341.19;;;16.85;100.00
7407;BME280;3745;56.964;24.128;2023-06-26T03:21:32;101346.28;;;16.91;100.00
7407;BME280;3745;56.964;24.128;2023-06-26T03:23:58;101262.91;;;16.50;100.00
7407;BME280;3745;56.964;24.128;2023-06-26T03:26:23;101351.31;;;17.09;100.00
7407;BME280;3745;56.964;24.128;2023-06-26T03:28:53;101283.28;;;16.74;100.00
7407;BME280;3745;56.964;24.128;2023-06-26T03:31:19;101341.09;;;17.12;100.00
7407;BME280;3745;56.964;24.128;2023-06-26T03:33:46;101257.75;;;16.68;100.00
7407;BME280;3745;56.964;24.128;2023-06-26T03:36:11;101341.06;;;17.15;100.00
7407;BME280;3745;56.964;24.128;2023-06-26T03:38:37;101341.09;;;17.12;100.00
7407;BME280;3745;56.964;24.128;2023-06-26T03:41:03;101252.66;;;16.65;100.00
7407;BME280;3745;56.964;24.128;2023-06-26T03:43:28;101318.91;;;17.08;100.00
7407;BME280;3745;56.964;24.128;2023-06-26T03:45:54;101318.91;;;17.08;100.00
7407;BME280;3745;56.964;24.128;2023-06-26T03:48:20;101318.91;;;17.08;100.00
7407;BME280;3745;56.964;24.128;2023-06-26T03:50:46;101327.41;;;17.17;100.00
7407;BME280;3745;56.964;24.128;2023-06-26T03:53:11;101312.09;;;17.16;100.00
7407;BME280;3745;56.964;24.128;2023-06-26T03:55:37;101264.41;;;17.00;100.00
7407;BME280;3745;56.964;24.128;2023-06-26T03:58:04;101331.53;;;17.44;100.00
7407;BME280;3745;56.964;24.128;2023-06-26T04:00:30;101320.34;;;17.54;100.00
7407;BME280;3745;56.964;24.128;2023-06-26T04:02:56;101325.44;;;17.63;100.00
7407;BME280;3745;56.964;24.128;2023-06-26T04:05:23;101330.63;;;17.51;100.00
7407;BME280;3745;56.964;24.128;2023-06-26T04:07:52;101335.69;;;17.63;100.00
7407;BME280;3745;56.964;24.128;2023-06-26T04:10:18;101330.53;;;17.66;100.00
7407;BME280;3745;56.964;24.128;2023-06-26T04:12:45;101158.09;;;16.65;100.00
7407;BME280;3745;56.964;24.128;2023-06-26T04:15:10;101320.31;;;17.66;100.00
7407;BME280;3745;56.964;24.128;2023-06-26T04:17:36;101305.00;;;17.57;100.00
7407;BME280;3745;56.964;24.128;2023-06-26T04:20:02;101324.56;;;17.70;100.00
7407;BME280;3745;56.964;24.128;2023-06-26T04:22:32;101327.09;;;17.73;100.00
7407;BME280;3745;56.964;24.128;2023-06-26T04:24:58;101260.75;;;17.40;100.00
7407;BME280;3745;56.964;24.128;2023-06-26T04:27:23;101326.94;;;17.92;100.00
7407;BME280;3745;56.964;24.128;2023-06-26T04:29:49;101338.88;;;17.96;100.00
7407;BME280;3745;56.964;24.128;2023-06-26T04:32:15;101305.63;;;17.90;100.00
7407;BME280;3745;56.964;24.128;2023-06-26T04:34:40;101306.47;;;17.88;100.00
7407;BME280;3745;56.964;24.128;2023-06-26T04:37:09;101320.03;;;18.00;100.00
7407;BME280;3745;56.964;24.128;2023-06-26T04:39:38;101270.69;;;17.84;100.00
7407;BME280;3745;56.964;24.128;2023-06-26T04:42:05;101330.06;;;18.27;100.00
7407;BME280;3745;56.964;24.128;2023-06-26T04:44:31;101314.81;;;18.12;100.00
7407;BME280;3745;56.964;24.128;2023-06-26T04:46:57;101336.94;;;18.19;100.00
7407;BME280;3745;56.964;24.128;2023-06-26T04:49:23;101263.97;;;17.66;100.00
7407;BME280;3745;56.964;24.128;2023-06-26T04:51:48;101345.50;;;18.18;100.00
7407;BME280;3745;56.964;24.128;2023-06-26T04:54:16;101300.38;;;18.05;100.00
7407;BME280;3745;56.964;24.128;2023-06-26T04:56:42;101334.31;;;18.25;100.00
7407;BME280;3745;56.964;24.128;2023-06-26T04:59:09;101345.22;;;18.51;100.00
7407;BME280;3745;56.964;24.128;2023-06-26T05:01:39;101289.06;;;18.24;100.00
7407;BME280;3745;56.964;24.128;2023-06-26T05:04:05;101297.50;;;18.35;100.00
7407;BME280;3745;56.964;24.128;2023-06-26T05:06:31;101320.41;;;18.55;100.00
7407;BME280;3745;56.964;24.128;2023-06-26T05:08:57;101329.50;;;18.78;100.00
7407;BME280;3745;56.964;24.128;2023-06-26T05:11:22;101322.50;;;18.92;100.00
7407;BME280;3745;56.964;24.128;2023-06-26T05:13:49;101317.13;;;19.11;100.00
7407;BME280;3745;56.964;24.128;2023-06-26T05:16:15;101311.84;;;19.20;100.00
7407;BME280;3745;56.964;24.128;2023-06-26T05:18:40;101155.56;;;18.45;100.00
7407;BME280;3745;56.964;24.128;2023-06-26T05:21:06;101289.09;;;19.58;100.00
7407;BME280;3745;56.964;24.128;2023-06-26T05:23:34;101180.06;;;19.24;100.00
7407;BME280;3745;56.964;24.128;2023-06-26T05:26:05;101237.94;;;19.46;100.00
7407;BME280;3745;56.964;24.128;2023-06-26T05:28:31;101191.38;;;19.11;100.00
7407;BME280;3745;56.964;24.128;2023-06-26T05:30:58;101278.81;;;19.58;100.00
7407;BME280;3745;56.964;24.128;2023-06-26T05:33:25;101175.53;;;18.84;100.00
7407;BME280;3745;56.964;24.128;2023-06-26T05:35:52;101287.47;;;19.51;100.00
7407;BME280;3745;56.964;24.128;2023-06-26T05:38:20;101306.38;;;19.47;100.00
7407;BME280;3745;56.964;24.128;2023-06-26T05:40:46;101267.19;;;19.33;100.00
7407;BME280;3745;56.964;24.128;2023-06-26T05:43:15;101302.72;;;19.60;100.00
7407;BME280;3745;56.964;24.128;2023-06-26T05:45:41;101213.06;;;18.91;100.00
7407;BME280;3745;56.964;24.128;2023-06-26T05:48:06;101269.97;;;19.19;100.00
7407;BME280;3745;56.964;24.128;2023-06-26T05:50:32;101248.59;;;19.19;100.00
7407;BME280;3745;56.964;24.128;2023-06-26T05:52:58;101157.00;;;18.64;100.00
7407;BME280;3745;56.964;24.128;2023-06-26T05:55:24;101288.31;;;19.52;100.00
7407;BME280;3745;56.964;24.128;2023-06-26T05:57:53;101301.72;;;19.70;100.00
7407;BME280;3745;56.964;24.128;2023-06-26T06:00:22;101298.25;;;19.74;100.00
7407;BME280;3745;56.964;24.128;2023-06-26T06:02:50;101114.91;;;18.80;100.00
7407;BME280;3745;56.964;24.128;2023-06-26T06:05:22;101202.03;;;19.43;100.00
7407;BME280;3745;56.964;24.128;2023-06-26T06:07:49;101234.03;;;19.74;100.00
7407;BME280;3745;56.964;24.128;2023-06-26T06:10:15;101221.66;;;19.94;100.00
7407;BME280;3745;56.964;24.128;2023-06-26T06:12:40;101206.25;;;19.94;100.00
7407;BME280;3745;56.964;24.128;2023-06-26T06:15:12;101161.31;;;19.69;100.00
7407;BME280;3745;56.964;24.128;2023-06-26T06:17:38;101028.44;;;18.87;100.00
7407;BME280;3745;56.964;24.128;2023-06-26T06:20:08;101228.56;;;19.92;100.00
7407;BME280;3745;56.964;24.128;2023-06-26T06:22:47;101052.13;;;19.03;100.00
7407;BME280;3745;56.964;24.128;2023-06-26T06:25:14;101146.91;;;19.62;100.00
7407;BME280;3745;56.964;24.128;2023-06-26T06:27:40;101043.78;;;18.91;100.00
7407;BME280;3745;56.964;24.128;2023-06-26T06:30:07;101145.09;;;19.67;100.00
7407;BME280;3745;56.964;24.128;2023-06-26T06:32:33;101020.63;;;18.94;100.00
7407;BME280;3745;56.964;24.128;2023-06-26T06:34:59;101218.13;;;20.01;100.00
7407;BME280;3745;56.964;24.128;2023-06-26T06:37:34;100971.00;;;18.45;100.00
7407;BME280;3745;56.964;24.128;2023-06-26T06:40:00;100974.47;;;18.41;100.00
7407;BME280;3745;56.964;24.128;2023-06-26T06:42:25;101032.63;;;18.92;100.00
7407;BME280;3745;56.964;24.128;2023-06-26T06:44:51;101076.69;;;19.16;100.00
7407;BME280;3745;56.964;24.128;2023-06-26T06:47:17;101145.44;;;19.49;100.00
7407;BME280;3745;56.964;24.128;2023-06-26T06:49:42;101213.94;;;19.94;100.00
7407;BME280;3745;56.964;24.128;2023-06-26T06:52:08;101006.53;;;18.69;100.00
7407;BME280;3745;56.964;24.128;2023-06-26T06:54:53;101214.75;;;19.96;100.00
7407;BME280;3745;56.964;24.128;2023-06-26T06:57:20;101197.97;;;19.80;100.00
7407;BME280;3745;56.964;24.128;2023-06-26T06:59:46;101045.38;;;18.95;100.00
7407;BME280;3745;56.964;24.128;2023-06-26T07:02:13;101217.94;;;20.11;100.00
7407;BME280;3745;56.964;24.128;2023-06-26T07:04:39;101223.06;;;20.11;100.00
7407;BME280;3745;56.964;24.128;2023-06-26T07:07:10;101221.44;;;20.07;100.00
7407;BME280;3745;56.964;24.128;2023-06-26T07:09:41;101112.97;;;19.45;100.00
7407;BME280;3745;56.964;24.128;2023-06-26T07:12:07;101216.13;;;20.16;100.00
7407;BME280;3745;56.964;24.128;2023-06-26T07:14:32;101159.50;;;19.76;100.00
7407;BME280;3745;56.964;24.128;2023-06-26T07:16:58;101229.50;;;20.34;100.00
7407;BME280;3745;56.964;24.128;2023-06-26T07:19:24;101082.06;;;19.51;100.00
7407;BME280;3745;56.964;24.128;2023-06-26T07:21:49;101040.38;;;19.35;100.00
7407;BME280;3745;56.964;24.128;2023-06-26T07:24:15;100965.97;;;18.89;100.00
7407;BME280;3745;56.964;24.128;2023-06-26T07:26:41;101071.97;;;19.42;100.00
7407;BME280;3745;56.964;24.128;2023-06-26T07:29:06;101013.81;;;18.92;100.00
7407;BME280;3745;56.964;24.128;2023-06-26T07:31:32;101133.34;;;19.54;100.00
7407;BME280;3745;56.964;24.128;2023-06-26T07:33:57;101190.38;;;19.74;100.00
7407;BME280;3745;56.964;24.128;2023-06-26T07:36:23;101110.75;;;19.25;100.00
7407;BME280;3745;56.964;24.128;2023-06-26T07:38:49;101228.66;;;19.86;100.00
7407;BME280;3745;56.964;24.128;2023-06-26T07:41:15;101137.97;;;19.32;100.00
7407;BME280;3745;56.964;24.128;2023-06-26T07:43:40;101137.13;;;19.32;100.00
7407;BME280;3745;56.964;24.128;2023-06-26T07:46:06;101150.88;;;19.31;100.00
7407;BME280;3745;56.964;24.128;2023-06-26T07:48:32;101230.56;;;19.75;100.00
7407;BME280;3745;56.964;24.128;2023-06-26T07:50:58;101152.59;;;19.29;100.00
7407;BME280;3745;56.964;24.128;2023-06-26T07:53:24;101053.38;;;18.79;100.00
7407;BME280;3745;56.964;24.128;2023-06-26T07:55:50;101193.00;;;19.71;100.00
7407;BME280;3745;56.964;24.128;2023-06-26T07:58:16;101091.47;;;19.02;100.00
7407;BME280;3745;56.964;24.128;2023-06-26T08:00:41;101204.25;;;19.63;100.00
7407;BME280;3745;56.964;24.128;2023-06-26T08:03:07;101186.69;;;19.40;100.00
7407;BME280;3745;56.964;24.128;2023-06-26T08:05:32;101163.00;;;19.20;100.00
7407;BME280;3745;56.964;24.128;2023-06-26T08:07:59;101127.22;;;19.11;100.00
7407;BME280;3745;56.964;24.128;2023-06-26T08:10:27;101048.50;;;18.64;100.00
7407;BME280;3745;56.964;24.128;2023-06-26T08:12:52;101229.63;;;19.81;100.00
7407;BME280;3745;56.964;24.128;2023-06-26T08:15:18;101228.63;;;19.89;100.00
7407;BME280;3745;56.964;24.128;2023-06-26T08:17:44;101006.78;;;18.54;100.00
7407;BME280;3745;56.964;24.128;2023-06-26T08:20:11;101037.03;;;18.84;100.00
7407;BME280;3745;56.964;24.128;2023-06-26T08:22:36;100967.69;;;18.38;100.00
7407;BME280;3745;56.964;24.128;2023-06-26T08:25:03;101074.09;;;19.19;100.00
7407;BME280;3745;56.964;24.128;2023-06-26T08:27:29;101192.69;;;19.86;100.00
7407;BME280;3745;56.964;24.128;2023-06-26T08:29:55;101191.56;;;20.02;100.00
7407;BME280;3745;56.964;24.128;2023-06-26T08:32:20;101018.75;;;19.03;100.00
7407;BME280;3745;56.964;24.128;2023-06-26T08:34:46;101005.81;;;19.09;100.00
7407;BME280;3745;56.964;24.128;2023-06-26T08:37:12;101046.28;;;19.43;100.00
7407;BME280;3745;56.964;24.128;2023-06-26T08:39:37;101083.59;;;19.61;100.00
7407;BME280;3745;56.964;24.128;2023-06-26T08:42:06;101227.47;;;20.50;100.00
7407;BME280;3745;56.964;24.128;2023-06-26T08:44:31;101124.31;;;19.79;100.00
7407;BME280;3745;56.964;24.128;2023-06-26T08:46:59;101173.59;;;19.99;100.00
7407;BME280;3745;56.964;24.128;2023-06-26T08:49:37;101138.16;;;19.72;100.00
7407;BME280;3745;56.964;24.128;2023-06-26T08:52:23;101229.19;;;20.05;100.00
7407;BME280;3745;56.964;24.128;2023-06-26T08:54:54;101071.78;;;19.04;100.00
7407;BME280;3745;56.964;24.128;2023-06-26T08:57:22;101081.84;;;19.16;100.00
7407;BME280;3745;56.964;24.128;2023-06-26T09:00:17;101221.06;;;20.28;100.00
7407;BME280;3745;56.964;24.128;2023-06-26T09:02:43;101152.28;;;19.96;100.00
7407;BME280;3745;56.964;24.128;2023-06-26T09:05:09;101213.97;;;20.39;100.00
7407;BME280;3745;56.964;24.128;2023-06-26T09:07:35;101086.72;;;19.75;100.00
7407;BME280;3745;56.964;24.128;2023-06-26T09:10:01;101198.97;;;20.61;100.00
7407;BME280;3745;56.964;24.128;2023-06-26T09:12:27;101218.00;;;20.90;100.00
7407;BME280;3745;56.964;24.128;2023-06-26T09:14:54;101212.66;;;20.99;100.00
7407;BME280;3745;56.964;24.128;2023-06-26T09:17:24;101209.13;;;21.03;100.00
7407;BME280;3745;56.964;24.128;2023-06-26T09:19:50;101199.75;;;21.01;100.00
7407;BME280;3745;56.964;24.128;2023-06-26T09:22:16;101181.81;;;20.60;100.00
7407;BME280;3745;56.964;24.128;2023-06-26T09:24:43;101179.25;;;20.58;100.00
7407;BME280;3745;56.964;24.128;2023-06-26T09:27:09;101208.06;;;20.75;100.00
7407;BME280;3745;56.964;24.128;2023-06-26T09:29:36;101184.75;;;20.43;100.00
7407;BME280;3745;56.964;24.128;2023-06-26T09:32:02;101208.06;;;20.75;100.00
7407;BME280;3745;56.964;24.128;2023-06-26T09:34:31;101081.22;;;19.93;100.00
7407;BME280;3745;56.964;24.128;2023-06-26T09:36:58;101120.09;;;20.20;100.00
7407;BME280;3745;56.964;24.128;2023-06-26T09:39:24;101182.13;;;20.84;100.00
7407;BME280;3745;56.964;24.128;2023-06-26T09:41:53;101072.97;;;20.19;100.00
7407;BME280;3745;56.964;24.128;2023-06-26T09:44:22;101087.03;;;20.43;100.00
7407;BME280;3745;56.964;24.128;2023-06-26T09:46:54;101162.47;;;21.19;100.00
7407;BME280;3745;56.964;24.128;2023-06-26T09:49:20;101060.63;;;20.73;100.00
7407;BME280;3745;56.964;24.128;2023-06-26T09:51:45;101125.06;;;21.02;100.00
7407;BME280;3745;56.964;24.128;2023-06-26T09:54:11;101080.97;;;20.82;100.00
7407;BME280;3745;56.964;24.128;2023-06-26T09:56:37;101167.69;;;21.16;100.00
7407;BME280;3745;56.964;24.128;2023-06-26T09:59:04;101188.75;;;21.31;100.00
7407;BME280;3745;56.964;24.128;2023-06-26T10:01:32;101194.31;;;21.50;100.00
7407;BME280;3745;56.964;24.128;2023-06-26T10:03:58;100999.16;;;20.61;100.00
7407;BME280;3745;56.964;24.128;2023-06-26T10:06:35;101137.41;;;21.59;100.00
7407;BME280;3745;56.964;24.128;2023-06-26T10:09:02;101184.34;;;22.02;100.00
7407;BME280;3745;56.964;24.128;2023-06-26T10:11:41;101090.78;;;21.67;100.00
7407;BME280;3745;56.964;24.128;2023-06-26T10:14:07;101078.25;;;21.85;100.00
7407;BME280;3745;56.964;24.128;2023-06-26T10:16:35;101053.97;;;21.63;100.00
7407;BME280;3745;56.964;24.128;2023-06-26T10:19:08;101132.25;;;22.21;100.00
7407;BME280;3745;56.964;24.128;2023-06-26T10:21:36;101092.47;;;22.28;100.00
7407;BME280;3745;56.964;24.128;2023-06-26T10:24:05;101148.97;;;22.64;100.00
7407;BME280;3745;56.964;24.128;2023-06-26T10:26:38;101023.88;;;21.94;100.00
7407;BME280;3745;56.964;24.128;2023-06-26T10:29:05;101124.47;;;22.50;100.00
7407;BME280;3745;56.964;24.128;2023-06-26T10:31:32;101095.69;;;22.36;100.00
7407;BME280;3745;56.964;24.128;2023-06-26T10:33:58;101103.66;;;22.56;100.00
7407;BME280;3745;56.964;24.128;2023-06-26T10:36:30;101133.88;;;22.80;100.00
7407;BME280;3745;56.964;24.128;2023-06-26T10:38:57;101140.91;;;23.03;100.00
7407;BME280;3745;56.964;24.128;2023-06-26T10:41:24;100942.81;;;21.75;100.00
7407;BME280;3745;56.964;24.128;2023-06-26T10:46:27;101062.19;;;22.34;100.00
7407;BME280;3745;56.964;24.128;2023-06-26T10:49:01;101145.31;;;22.99;100.00
7407;BME280;3745;56.964;24.128;2023-06-26T10:51:27;101109.34;;;22.93;100.00
7407;BME280;3745;56.964;24.128;2023-06-26T10:53:57;101114.75;;;23.12;100.00
7407;BME280;3745;56.964;24.128;2023-06-26T10:56:43;101136.66;;;23.53;100.00
7407;BME280;3745;56.964;24.128;2023-06-26T11:01:43;101110.59;;;23.59;100.00
7407;BME280;3745;56.964;24.128;2023-06-26T11:04:09;101050.44;;;23.54;100.00
7407;BME280;3745;56.964;24.128;2023-06-26T11:06:40;101131.75;;;23.93;100.00
7407;BME280;3745;56.964;24.128;2023-06-26T11:09:15;101115.66;;;24.08;100.00
7407;BME280;3745;56.964;24.128;2023-06-26T11:14:21;101104.72;;;24.02;100.00
7407;BME280;3745;56.964;24.128;2023-06-26T11:16:47;101132.47;;;23.97;100.00
7407;BME280;3745;56.964;24.128;2023-06-26T11:19:16;101007.78;;;22.94;100.00
7407;BME280;3745;56.964;24.128;2023-06-26T11:21:42;101090.47;;;23.44;100.00
7407;BME280;3745;56.964;24.128;2023-06-26T11:24:09;101091.25;;;23.19;100.00
7407;BME280;3745;56.964;24.128;2023-06-26T11:26:38;101142.31;;;23.38;100.00
7407;BME280;3745;56.964;24.128;2023-06-26T11:29:04;101106.69;;;22.96;100.00
7407;BME280;3745;56.964;24.128;2023-06-26T11:31:33;101142.03;;;23.47;100.00
7407;BME280;3745;56.964;24.128;2023-06-26T11:34:00;101131.06;;;23.40;100.00
7407;BME280;3745;56.964;24.128;2023-06-26T11:36:27;101135.44;;;23.37;100.00
7407;BME280;3745;56.964;24.128;2023-06-26T11:38:57;101142.03;;;23.47;100.00
7407;BME280;3745;56.964;24.128;2023-06-26T11:41:25;101046.66;;;22.90;100.00
7407;BME280;3745;56.964;24.128;2023-06-26T11:43:52;101040.75;;;22.86;100.00
7407;BME280;3745;56.964;24.128;2023-06-26T11:46:19;101111.53;;;23.32;100.00
7407;BME280;3745;56.964;24.128;2023-06-26T11:48:45;101117.06;;;23.19;100.00
7407;BME280;3745;56.964;24.128;2023-06-26T11:51:15;101098.53;;;23.08;100.00
7407;BME280;3745;56.964;24.128;2023-06-26T11:53:45;101137.72;;;23.19;100.00
7407;BME280;3745;56.964;24.128;2023-06-26T11:56:12;101076.34;;;22.77;100.00
7407;BME280;3745;56.964;24.128;2023-06-26T11:59:06;101142.53;;;22.79;100.00
7407;BME280;3745;56.964;24.128;2023-06-26T12:01:34;101091.81;;;22.49;100.00
7407;BME280;3745;56.964;24.128;2023-06-26T12:04:05;101115.56;;;22.60;100.00
7407;BME280;3745;56.964;24.128;2023-06-26T12:06:33;101026.25;;;22.30;100.00
7407;BME280;3745;56.964;24.128;2023-06-26T12:09:00;101146.94;;;23.02;100.00
7407;BME280;3745;56.964;24.128;2023-06-26T12:11:28;101114.38;;;22.72;100.00
7407;BME280;3745;56.964;24.128;2023-06-26T12:13:55;101135.66;;;22.78;100.00
7407;BME280;3745;56.964;24.128;2023-06-26T12:16:21;101129.09;;;22.68;100.00
7407;BME280;3745;56.964;24.128;2023-06-26T12:18:47;101100.66;;;22.42;100.00
7407;BME280;3745;56.964;24.128;2023-06-26T12:21:44;101131.84;;;22.62;100.00
7407;BME280;3745;56.964;24.128;2023-06-26T12:24:17;101130.97;;;22.63;100.00
7407;BME280;3745;56.964;24.128;2023-06-26T12:26:44;101108.91;;;22.53;100.00
7407;BME280;3745;56.964;24.128;2023-06-26T12:29:11;101118.69;;;22.71;100.00
7407;BME280;3745;56.964;24.128;2023-06-26T12:31:56;101125.34;;;23.04;100.00
7407;BME280;3745;56.964;24.128;2023-06-26T12:34:34;101034.97;;;22.52;100.00
7407;BME280;3745;56.964;24.128;2023-06-26T12:37:05;101101.03;;;22.85;100.00
7407;BME280;3745;56.964;24.128;2023-06-26T12:39:51;101017.84;;;21.95;100.00
7407;BME280;3745;56.964;24.128;2023-06-26T12:42:37;101113.13;;;22.55;100.00
7407;BME280;3745;56.964;24.128;2023-06-26T12:45:11;101119.88;;;22.87;100.00
7407;BME280;3745;56.964;24.128;2023-06-26T12:47:37;101076.88;;;22.86;100.00
7407;BME280;3745;56.964;24.128;2023-06-26T12:50:07;101130.59;;;23.28;100.00
7407;BME280;3745;56.964;24.128;2023-06-26T12:52:33;101125.22;;;23.34;100.00
7407;BME280;3745;56.964;24.128;2023-06-26T12:54:59;101075.06;;;23.14;100.00
7407;BME280;3745;56.964;24.128;2023-06-26T12:57:25;101103.28;;;23.20;100.00
7407;BME280;3745;56.964;24.128;2023-06-26T12:59:51;101091.56;;;23.10;100.00
7407;BME280;3745;56.964;24.128;2023-06-26T13:02:17;101075.97;;;23.13;100.00
7407;BME280;3745;56.964;24.128;2023-06-26T13:04:43;101101.09;;;23.35;100.00
7407;BME280;3745;56.964;24.128;2023-06-26T13:07:10;101052.47;;;22.96;100.00